Terminal Aerodrome Forecast
Issued by NWS

Current Version | Previous Version | Text Only | Print | Product List | Glossary On
Versions: 1 2 3 4 5 6 7 8 9 10 11 12 13 14 15 16 17
000
FTUS45 KABQ 030149 AAA
TAFFMN
TAF AMD
KFMN 030149Z 0302/0324 28011KT P6SM VCSH SCT090 BKN150
      TEMPO 0302/0304 VRB15G35KT 5SM TSRA BKN060CB
     FM030400 11011KT P6SM VCSH BKN090
     FM030600 09010KT P6SM BKN090
     FM031900 VRB05KT P6SM FEW090
     FM032300 25010KT P6SM SCT090 SCT150=

USA.gov is the U.S. government's official web portal to all federal, state and local government web resources and services.